sensor_id;sensor_type;location;lat;lon;timestamp;pressure;altitude;pressure_sealevel;temperature;humidity
9969;BME280;5025;48.890;9.278;2023-04-08T00:00:11;99037.31;;;9.35;75.44
9969;BME280;5025;48.890;9.278;2023-04-08T00:02:37;99034.84;;;9.33;75.45
9969;BME280;5025;48.890;9.278;2023-04-08T00:05:02;99038.13;;;9.36;75.51
9969;BME280;5025;48.890;9.278;2023-04-08T00:07:27;99034.31;;;9.11;76.30
9969;BME280;5025;48.890;9.278;2023-04-08T00:09:53;99038.09;;;8.90;77.80
9969;BME280;5025;48.890;9.278;2023-04-08T00:12:18;99030.66;;;8.86;78.71
9969;BME280;5025;48.890;9.278;2023-04-08T00:14:43;99038.13;;;8.84;79.14
9969;BME280;5025;48.890;9.278;2023-04-08T00:17:08;99034.84;;;8.82;79.16
9969;BME280;5025;48.890;9.278;2023-04-08T00:19:34;99036.88;;;8.93;78.70
9969;BME280;5025;48.890;9.278;2023-04-08T00:22:00;99037.25;;;9.03;78.37
9969;BME280;5025;48.890;9.278;2023-04-08T00:24:25;99042.00;;;9.08;78.17
9969;BME280;5025;48.890;9.278;2023-04-08T00:26:51;99040.94;;;9.15;77.78
9969;BME280;5025;48.890;9.278;2023-04-08T00:29:16;99034.72;;;9.22;77.71
9969;BME280;5025;48.890;9.278;2023-04-08T00:31:41;99038.59;;;9.26;77.30
9969;BME280;5025;48.890;9.278;2023-04-08T00:34:07;99047.09;;;9.29;77.23
9969;BME280;5025;48.890;9.278;2023-04-08T00:36:32;99050.41;;;9.31;76.82
9969;BME280;5025;48.890;9.278;2023-04-08T00:39:00;99041.25;;;9.32;76.84
9969;BME280;5025;48.890;9.278;2023-04-08T00:41:26;99045.41;;;9.35;76.59
9969;BME280;5025;48.890;9.278;2023-04-08T00:43:51;99044.38;;;9.36;76.60
9969;BME280;5025;48.890;9.278;2023-04-08T00:46:17;99047.88;;;9.37;76.51
9969;BME280;5025;48.890;9.278;2023-04-08T00:48:42;99046.44;;;9.34;76.54
9969;BME280;5025;48.890;9.278;2023-04-08T00:51:07;99044.81;;;9.33;76.41
9969;BME280;5025;48.890;9.278;2023-04-08T00:53:33;99053.50;;;9.35;76.51
9969;BME280;5025;48.890;9.278;2023-04-08T00:55:58;99055.38;;;9.28;76.78
9969;BME280;5025;48.890;9.278;2023-04-08T00:58:26;99053.53;;;9.28;76.81
9969;BME280;5025;48.890;9.278;2023-04-08T01:00:58;99057.66;;;9.31;76.65
9969;BME280;5025;48.890;9.278;2023-04-08T01:06:07;99053.09;;;9.31;76.31
9969;BME280;5025;48.890;9.278;2023-04-08T01:08:37;99053.91;;;9.32;76.54
9969;BME280;5025;48.890;9.278;2023-04-08T01:11:09;99052.47;;;9.29;76.71
9969;BME280;5025;48.890;9.278;2023-04-08T01:13:38;99054.97;;;9.31;76.75
9969;BME280;5025;48.890;9.278;2023-04-08T01:16:05;99048.53;;;9.32;76.74
9969;BME280;5025;48.890;9.278;2023-04-08T01:18:34;99058.72;;;9.30;76.51
9969;BME280;5025;48.890;9.278;2023-04-08T01:21:01;99057.66;;;9.31;76.49
9969;BME280;5025;48.890;9.278;2023-04-08T01:24:00;99056.00;;;9.30;76.61
9969;BME280;5025;48.890;9.278;2023-04-08T01:26:31;99063.25;;;9.29;76.83
9969;BME280;5025;48.890;9.278;2023-04-08T01:28:59;99062.00;;;9.32;76.61
9969;BME280;5025;48.890;9.278;2023-04-08T01:31:25;99061.41;;;9.30;76.39
9969;BME280;5025;48.890;9.278;2023-04-08T01:33:51;99058.72;;;9.30;76.49
9969;BME280;5025;48.890;9.278;2023-04-08T01:36:19;99056.00;;;9.30;76.48
9969;BME280;5025;48.890;9.278;2023-04-08T01:38:46;99046.88;;;9.31;76.47
9969;BME280;5025;48.890;9.278;2023-04-08T01:41:12;99054.97;;;9.31;76.56
9969;BME280;5025;48.890;9.278;2023-04-08T01:43:42;99049.56;;;9.31;76.51
9969;BME280;5025;48.890;9.278;2023-04-08T01:46:09;99050.63;;;9.30;76.56
9969;BME280;5025;48.890;9.278;2023-04-08T01:48:38;99057.97;;;9.09;77.23
9969;BME280;5025;48.890;9.278;2023-04-08T01:51:05;99054.00;;;9.12;77.55
9969;BME280;5025;48.890;9.278;2023-04-08T01:53:31;99055.44;;;9.14;77.21
9969;BME280;5025;48.890;9.278;2023-04-08T01:56:03;99052.34;;;9.18;76.98
9969;BME280;5025;48.890;9.278;2023-04-08T01:58:33;99053.78;;;9.20;76.80
9969;BME280;5025;48.890;9.278;2023-04-08T02:01:01;99045.06;;;9.18;76.87
9969;BME280;5025;48.890;9.278;2023-04-08T02:03:28;99052.13;;;9.19;76.91
9969;BME280;5025;48.890;9.278;2023-04-08T02:05:54;99046.34;;;9.15;76.73
9969;BME280;5025;48.890;9.278;2023-04-08T02:08:20;99051.94;;;9.14;76.91
9969;BME280;5025;48.890;9.278;2023-04-08T02:10:45;99046.75;;;9.12;76.54
9969;BME280;5025;48.890;9.278;2023-04-08T02:13:11;99051.94;;;9.14;76.89
9969;BME280;5025;48.890;9.278;2023-04-08T02:15:38;99053.78;;;9.13;77.00
9969;BME280;5025;48.890;9.278;2023-04-08T02:18:12;99051.94;;;9.14;76.93
9969;BME280;5025;48.890;9.278;2023-04-08T02:20:43;99052.16;;;9.12;76.80
9969;BME280;5025;48.890;9.278;2023-04-08T02:23:21;99050.28;;;9.13;76.61
9969;BME280;5025;48.890;9.278;2023-04-08T02:25:49;99050.50;;;9.11;76.75
9969;BME280;5025;48.890;9.278;2023-04-08T02:28:17;99060.44;;;9.11;76.92
9969;BME280;5025;48.890;9.278;2023-04-08T02:30:51;99055.06;;;9.11;76.85
9969;BME280;5025;48.890;9.278;2023-04-08T02:33:19;99056.09;;;9.10;76.68
9969;BME280;5025;48.890;9.278;2023-04-08T02:35:47;99055.06;;;9.04;76.76
9969;BME280;5025;48.890;9.278;2023-04-08T02:38:13;99057.75;;;9.04;76.91
9969;BME280;5025;48.890;9.278;2023-04-08T02:40:38;99058.59;;;9.05;76.86
9969;BME280;5025;48.890;9.278;2023-04-08T02:43:03;99055.72;;;8.93;76.99
9969;BME280;5025;48.890;9.278;2023-04-08T02:45:30;99059.44;;;8.92;77.23
9969;BME280;5025;48.890;9.278;2023-04-08T02:47:57;99056.75;;;8.92;77.08
9969;BME280;5025;48.890;9.278;2023-04-08T02:50:24;99054.06;;;8.92;77.25
9969;BME280;5025;48.890;9.278;2023-04-08T02:52:49;99054.06;;;8.92;77.21
9969;BME280;5025;48.890;9.278;2023-04-08T02:55:15;99053.25;;;8.91;76.88
9969;BME280;5025;48.890;9.278;2023-04-08T02:57:41;99047.03;;;8.91;76.73
9969;BME280;5025;48.890;9.278;2023-04-08T03:00:07;99053.44;;;8.90;77.20
9969;BME280;5025;48.890;9.278;2023-04-08T03:02:33;99048.66;;;8.92;77.10
9969;BME280;5025;48.890;9.278;2023-04-08T03:04:58;99055.94;;;8.91;77.13
9969;BME280;5025;48.890;9.278;2023-04-08T03:07:23;99050.97;;;8.88;77.18
9969;BME280;5025;48.890;9.278;2023-04-08T03:09:49;99053.88;;;8.87;76.99
9969;BME280;5025;48.890;9.278;2023-04-08T03:12:15;99057.59;;;8.86;76.92
9969;BME280;5025;48.890;9.278;2023-04-08T03:14:40;99057.59;;;8.86;76.90
9969;BME280;5025;48.890;9.278;2023-04-08T03:17:06;99058.66;;;8.85;77.17
9969;BME280;5025;48.890;9.278;2023-04-08T03:19:31;99060.28;;;8.86;76.91
9969;BME280;5025;48.890;9.278;2023-04-08T03:21:56;99058.88;;;8.83;77.04
9969;BME280;5025;48.890;9.278;2023-04-08T03:24:22;99069.44;;;8.85;77.02
9969;BME280;5025;48.890;9.278;2023-04-08T03:26:47;99063.81;;;8.86;77.23
9969;BME280;5025;48.890;9.278;2023-04-08T03:29:12;99061.94;;;8.87;77.12
9969;BME280;5025;48.890;9.278;2023-04-08T03:31:37;99065.47;;;8.87;76.86
9969;BME280;5025;48.890;9.278;2023-04-08T03:34:03;99071.69;;;8.88;77.11
9969;BME280;5025;48.890;9.278;2023-04-08T03:36:28;99068.16;;;8.87;77.04
9969;BME280;5025;48.890;9.278;2023-04-08T03:38:56;99069.00;;;8.88;76.89
9969;BME280;5025;48.890;9.278;2023-04-08T03:41:21;99073.75;;;8.86;77.00
9969;BME280;5025;48.890;9.278;2023-04-08T03:43:46;99064.84;;;8.85;76.98
9969;BME280;5025;48.890;9.278;2023-04-08T03:46:11;99067.56;;;8.85;76.99
9969;BME280;5025;48.890;9.278;2023-04-08T03:48:37;99065.06;;;8.84;77.15
9969;BME280;5025;48.890;9.278;2023-04-08T03:51:02;99067.75;;;8.84;77.04
9969;BME280;5025;48.890;9.278;2023-04-08T03:53:27;99063.41;;;8.83;77.02
9969;BME280;5025;48.890;9.278;2023-04-08T03:55:55;99063.00;;;8.79;76.93
9969;BME280;5025;48.890;9.278;2023-04-08T03:58:20;99060.94;;;8.74;77.27
9969;BME280;5025;48.890;9.278;2023-04-08T04:00:46;99061.59;;;8.63;77.21
9969;BME280;5025;48.890;9.278;2023-04-08T04:03:11;99061.00;;;8.48;77.94
9969;BME280;5025;48.890;9.278;2023-04-08T04:05:37;99059.72;;;8.43;78.26
9969;BME280;5025;48.890;9.278;2023-04-08T04:08:03;99062.00;;;8.47;78.05
9969;BME280;5025;48.890;9.278;2023-04-08T04:10:28;99066.38;;;8.48;77.99
9969;BME280;5025;48.890;9.278;2023-04-08T04:12:54;99066.38;;;8.48;77.68
9969;BME280;5025;48.890;9.278;2023-04-08T04:15:19;99070.69;;;8.49;77.62
9969;BME280;5025;48.890;9.278;2023-04-08T04:17:47;99069.28;;;8.46;77.78
9969;BME280;5025;48.890;9.278;2023-04-08T04:20:12;99065.72;;;8.46;77.74
9969;BME280;5025;48.890;9.278;2023-04-08T04:22:37;99072.97;;;8.45;77.63
9969;BME280;5025;48.890;9.278;2023-04-08T04:25:03;99068.81;;;8.42;77.42
9969;BME280;5025;48.890;9.278;2023-04-08T04:27:28;99069.22;;;8.39;77.52
9969;BME280;5025;48.890;9.278;2023-04-08T04:29:54;99070.69;;;8.35;77.59
9969;BME280;5025;48.890;9.278;2023-04-08T04:32:19;99071.91;;;8.33;77.63
9969;BME280;5025;48.890;9.278;2023-04-08T04:34:44;99073.38;;;8.22;78.01
9969;BME280;5025;48.890;9.278;2023-04-08T04:37:10;99070.88;;;8.14;78.21
9969;BME280;5025;48.890;9.278;2023-04-08T04:39:36;99074.19;;;8.16;78.47
9969;BME280;5025;48.890;9.278;2023-04-08T04:42:01;99082.88;;;8.18;78.00
9969;BME280;5025;48.890;9.278;2023-04-08T04:44:27;99082.88;;;8.18;78.06
9969;BME280;5025;48.890;9.278;2023-04-08T04:46:52;99082.25;;;8.16;78.40
9969;BME280;5025;48.890;9.278;2023-04-08T04:49:18;99082.06;;;8.17;78.21
9969;BME280;5025;48.890;9.278;2023-04-08T04:51:43;99084.13;;;8.15;78.29
9969;BME280;5025;48.890;9.278;2023-04-08T04:54:08;99096.13;;;8.13;78.09
9969;BME280;5025;48.890;9.278;2023-04-08T04:56:33;99097.13;;;8.12;78.19
9969;BME280;5025;48.890;9.278;2023-04-08T04:58:59;99095.91;;;8.14;78.22
9969;BME280;5025;48.890;9.278;2023-04-08T05:01:24;99098.81;;;8.13;78.12
9969;BME280;5025;48.890;9.278;2023-04-08T05:03:50;99103.38;;;8.12;77.94
9969;BME280;5025;48.890;9.278;2023-04-08T05:06:15;99107.09;;;8.11;78.13
9969;BME280;5025;48.890;9.278;2023-04-08T05:08:40;99104.41;;;8.11;78.21
9969;BME280;5025;48.890;9.278;2023-04-08T05:11:09;99114.34;;;8.11;78.15
9969;BME280;5025;48.890;9.278;2023-04-08T05:13:35;99113.47;;;8.10;78.07
9969;BME280;5025;48.890;9.278;2023-04-08T05:16:00;99117.84;;;8.11;78.26
9969;BME280;5025;48.890;9.278;2023-04-08T05:18:26;99123.00;;;8.13;78.17
9969;BME280;5025;48.890;9.278;2023-04-08T05:20:51;99119.72;;;8.11;78.27
9969;BME280;5025;48.890;9.278;2023-04-08T05:23:16;99134.81;;;8.12;78.23
9969;BME280;5025;48.890;9.278;2023-04-08T05:25:42;99123.00;;;8.13;78.32
9969;BME280;5025;48.890;9.278;2023-04-08T05:28:07;99127.38;;;8.14;78.47
9969;BME280;5025;48.890;9.278;2023-04-08T05:30:32;99129.22;;;8.13;78.31
9969;BME280;5025;48.890;9.278;2023-04-08T05:32:58;99134.41;;;8.15;78.64
9969;BME280;5025;48.890;9.278;2023-04-08T05:35:23;99120.94;;;8.15;78.48
9969;BME280;5025;48.890;9.278;2023-04-08T05:37:48;99129.66;;;8.17;78.65
9969;BME280;5025;48.890;9.278;2023-04-08T05:40:14;99125.09;;;8.17;78.55
9969;BME280;5025;48.890;9.278;2023-04-08T05:42:39;99125.91;;;8.18;78.69
9969;BME280;5025;48.890;9.278;2023-04-08T05:45:06;99130.88;;;8.14;78.63
9969;BME280;5025;48.890;9.278;2023-04-08T05:47:32;99131.69;;;8.08;78.82
9969;BME280;5025;48.890;9.278;2023-04-08T05:49:57;99144.94;;;8.03;79.03
9969;BME280;5025;48.890;9.278;2023-04-08T05:52:22;99133.34;;;8.02;78.75
9969;BME280;5025;48.890;9.278;2023-04-08T05:54:48;99137.88;;;7.95;79.25
9969;BME280;5025;48.890;9.278;2023-04-08T05:57:13;99142.84;;;7.98;79.48
9969;BME280;5025;48.890;9.278;2023-04-08T05:59:40;99149.47;;;8.02;79.09
9969;BME280;5025;48.890;9.278;2023-04-08T06:02:06;99142.88;;;8.05;79.22
9969;BME280;5025;48.890;9.278;2023-04-08T06:04:31;99150.94;;;8.12;79.11
9969;BME280;5025;48.890;9.278;2023-04-08T06:06:56;99153.22;;;8.15;79.19
9969;BME280;5025;48.890;9.278;2023-04-08T06:09:25;99156.16;;;8.20;79.01
9969;BME280;5025;48.890;9.278;2023-04-08T06:11:51;99154.06;;;8.22;79.06
9969;BME280;5025;48.890;9.278;2023-04-08T06:14:16;99158.03;;;8.26;78.99
9969;BME280;5025;48.890;9.278;2023-04-08T06:16:41;99158.63;;;8.28;78.76
9969;BME280;5025;48.890;9.278;2023-04-08T06:19:07;99158.63;;;8.28;79.08
9969;BME280;5025;48.890;9.278;2023-04-08T06:21:32;99158.84;;;8.20;78.93
9969;BME280;5025;48.890;9.278;2023-04-08T06:23:57;99164.59;;;8.10;80.25
9969;BME280;5025;48.890;9.278;2023-04-08T06:26:23;99167.31;;;8.17;80.00
9969;BME280;5025;48.890;9.278;2023-04-08T06:28:48;99170.22;;;8.22;80.10
9969;BME280;5025;48.890;9.278;2023-04-08T06:31:13;99175.00;;;8.26;79.84
9969;BME280;5025;48.890;9.278;2023-04-08T06:33:38;99166.91;;;8.33;79.86
9969;BME280;5025;48.890;9.278;2023-04-08T06:36:05;99172.28;;;8.33;79.71
9969;BME280;5025;48.890;9.278;2023-04-08T06:38:31;99168.19;;;8.37;79.81
9969;BME280;5025;48.890;9.278;2023-04-08T06:41:06;99175.84;;;8.40;79.73
9969;BME280;5025;48.890;9.278;2023-04-08T06:43:32;99175.81;;;8.27;80.56
9969;BME280;5025;48.890;9.278;2023-04-08T06:45:58;99184.53;;;8.36;80.53
9969;BME280;5025;48.890;9.278;2023-04-08T06:48:24;99187.22;;;8.42;80.40
9969;BME280;5025;48.890;9.278;2023-04-08T06:50:55;99187.28;;;8.49;80.20
9969;BME280;5025;48.890;9.278;2023-04-08T06:53:22;99192.03;;;8.54;80.14
9969;BME280;5025;48.890;9.278;2023-04-08T06:55:48;99187.69;;;8.59;80.05
9969;BME280;5025;48.890;9.278;2023-04-08T06:58:13;99193.09;;;8.66;80.02
9969;BME280;5025;48.890;9.278;2023-04-08T07:00:38;99194.09;;;8.52;80.35
9969;BME280;5025;48.890;9.278;2023-04-08T07:03:04;99192.66;;;8.49;80.61
9969;BME280;5025;48.890;9.278;2023-04-08T07:05:29;99198.19;;;8.34;81.29
9969;BME280;5025;48.890;9.278;2023-04-08T07:07:55;99194.63;;;8.14;82.03
9969;BME280;5025;48.890;9.278;2023-04-08T07:10:20;99195.50;;;8.28;82.01
9969;BME280;5025;48.890;9.278;2023-04-08T07:12:45;99197.97;;;8.29;81.75
9969;BME280;5025;48.890;9.278;2023-04-08T07:15:11;99193.81;;;8.20;82.16
9969;BME280;5025;48.890;9.278;2023-04-08T07:17:36;99195.03;;;8.17;82.68
9969;BME280;5025;48.890;9.278;2023-04-08T07:20:01;99190.06;;;8.21;82.49
9969;BME280;5025;48.890;9.278;2023-04-08T07:22:27;99196.25;;;8.08;83.15
9969;BME280;5025;48.890;9.278;2023-04-08T07:24:52;99200.41;;;8.11;83.72
9969;BME280;5025;48.890;9.278;2023-04-08T07:27:18;99197.06;;;8.08;83.61
9969;BME280;5025;48.890;9.278;2023-04-08T07:29:43;99193.38;;;8.16;83.65
9969;BME280;5025;48.890;9.278;2023-04-08T07:32:08;99201.84;;;8.13;83.55
9969;BME280;5025;48.890;9.278;2023-04-08T07:34:34;99202.03;;;8.12;83.76
9969;BME280;5025;48.890;9.278;2023-04-08T07:37:00;99193.75;;;8.06;83.74
9969;BME280;5025;48.890;9.278;2023-04-08T07:39:26;99203.91;;;8.11;83.83
9969;BME280;5025;48.890;9.278;2023-04-08T07:41:51;99206.19;;;8.07;83.91
9969;BME280;5025;48.890;9.278;2023-04-08T07:44:16;99211.78;;;8.13;84.05
9969;BME280;5025;48.890;9.278;2023-04-08T07:46:41;99212.84;;;8.18;84.01
9969;BME280;5025;48.890;9.278;2023-04-08T07:49:09;99219.06;;;8.19;84.10
9969;BME280;5025;48.890;9.278;2023-04-08T07:51:35;99221.59;;;8.34;83.81
9969;BME280;5025;48.890;9.278;2023-04-08T07:54:00;99233.56;;;8.38;83.17
9969;BME280;5025;48.890;9.278;2023-04-08T07:56:25;99226.63;;;8.57;82.56
9969;BME280;5025;48.890;9.278;2023-04-08T07:58:51;99222.91;;;8.71;82.30
9969;BME280;5025;48.890;9.278;2023-04-08T08:01:21;99229.94;;;8.86;81.78
9969;BME280;5025;48.890;9.278;2023-04-08T08:03:48;99232.06;;;8.97;81.38
9969;BME280;5025;48.890;9.278;2023-04-08T08:06:13;99223.94;;;9.10;81.04
9969;BME280;5025;48.890;9.278;2023-04-08T08:08:39;99225.19;;;9.21;80.77
9969;BME280;5025;48.890;9.278;2023-04-08T08:11:04;99228.50;;;9.30;80.43
9969;BME280;5025;48.890;9.278;2023-04-08T08:13:30;99232.84;;;9.38;80.18
9969;BME280;5025;48.890;9.278;2023-04-08T08:15:55;99225.75;;;9.43;80.13
9969;BME280;5025;48.890;9.278;2023-04-08T08:18:21;99228.25;;;9.51;79.80
9969;BME280;5025;48.890;9.278;2023-04-08T08:20:46;99223.06;;;9.50;79.26
9969;BME280;5025;48.890;9.278;2023-04-08T08:23:12;99222.28;;;9.23;78.30
9969;BME280;5025;48.890;9.278;2023-04-08T08:25:37;99223.31;;;8.95;77.54
9969;BME280;5025;48.890;9.278;2023-04-08T08:28:02;99228.91;;;8.73;78.05
9969;BME280;5025;48.890;9.278;2023-04-08T08:30:28;99221.03;;;8.92;78.31
9969;BME280;5025;48.890;9.278;2023-04-08T08:32:53;99222.28;;;9.03;77.74
9969;BME280;5025;48.890;9.278;2023-04-08T08:35:19;99223.94;;;9.10;77.53
9969;BME280;5025;48.890;9.278;2023-04-08T08:37:44;99233.69;;;9.11;77.29
9969;BME280;5025;48.890;9.278;2023-04-08T08:40:10;99230.78;;;9.13;76.74
9969;BME280;5025;48.890;9.278;2023-04-08T08:42:35;99234.53;;;9.19;76.53
9969;BME280;5025;48.890;9.278;2023-04-08T08:45:02;99235.34;;;9.19;75.96
9969;BME280;5025;48.890;9.278;2023-04-08T08:47:27;99239.50;;;9.22;75.79
9969;BME280;5025;48.890;9.278;2023-04-08T08:49:55;99239.69;;;9.27;75.45
9969;BME280;5025;48.890;9.278;2023-04-08T08:52:20;99243.59;;;9.51;74.92
9969;BME280;5025;48.890;9.278;2023-04-08T08:54:46;99235.25;;;9.66;74.41
9969;BME280;5025;48.890;9.278;2023-04-08T08:57:20;99248.31;;;9.69;73.51
9969;BME280;5025;48.890;9.278;2023-04-08T08:59:46;99248.53;;;9.67;72.80
9969;BME280;5025;48.890;9.278;2023-04-08T09:02:27;99254.59;;;9.56;72.05
9969;BME280;5025;48.890;9.278;2023-04-08T09:05:01;99243.81;;;9.43;70.44
9969;BME280;5025;48.890;9.278;2023-04-08T09:07:28;99254.38;;;9.58;70.37
9969;BME280;5025;48.890;9.278;2023-04-08T09:09:56;99248.34;;;9.62;69.14
9969;BME280;5025;48.890;9.278;2023-04-08T09:12:23;99249.50;;;9.86;68.95
9969;BME280;5025;48.890;9.278;2023-04-08T09:14:49;99244.31;;;9.85;67.52
9969;BME280;5025;48.890;9.278;2023-04-08T09:17:15;99254.53;;;9.76;66.84
9969;BME280;5025;48.890;9.278;2023-04-08T09:20:03;99256.00;;;9.72;67.24
9969;BME280;5025;48.890;9.278;2023-04-08T09:22:33;99252.06;;;9.75;67.27
9969;BME280;5025;48.890;9.278;2023-04-08T09:24:59;99252.00;;;9.88;67.08
9969;BME280;5025;48.890;9.278;2023-04-08T09:27:34;99251.59;;;9.84;64.86
9969;BME280;5025;48.890;9.278;2023-04-08T09:30:13;99249.09;;;9.90;65.43
9969;BME280;5025;48.890;9.278;2023-04-08T09:32:53;99249.22;;;10.08;65.69
9969;BME280;5025;48.890;9.278;2023-04-08T09:35:19;99246.31;;;10.10;64.94
9969;BME280;5025;48.890;9.278;2023-04-08T09:37:45;99249.16;;;10.21;64.78
9969;BME280;5025;48.890;9.278;2023-04-08T09:40:11;99246.22;;;10.30;64.00
9969;BME280;5025;48.890;9.278;2023-04-08T09:42:39;99252.91;;;10.27;63.12
9969;BME280;5025;48.890;9.278;2023-04-08T09:45:06;99242.63;;;10.49;63.19
9969;BME280;5025;48.890;9.278;2023-04-08T09:47:41;99245.13;;;10.76;62.79
9969;BME280;5025;48.890;9.278;2023-04-08T09:50:08;99246.00;;;11.02;62.51
9969;BME280;5025;48.890;9.278;2023-04-08T09:52:41;99248.00;;;10.81;60.40
9969;BME280;5025;48.890;9.278;2023-04-08T09:55:08;99243.66;;;10.80;60.77
9969;BME280;5025;48.890;9.278;2023-04-08T09:57:43;99245.38;;;11.00;60.36
9969;BME280;5025;48.890;9.278;2023-04-08T10:00:12;99239.75;;;11.26;60.09
9969;BME280;5025;48.890;9.278;2023-04-08T10:03:05;99242.44;;;11.52;59.89
9969;BME280;5025;48.890;9.278;2023-04-08T10:05:40;99252.44;;;11.70;59.49
9969;BME280;5025;48.890;9.278;2023-04-08T10:08:06;99253.81;;;11.79;59.14
9969;BME280;5025;48.890;9.278;2023-04-08T10:10:33;99252.91;;;11.85;59.07
9969;BME280;5025;48.890;9.278;2023-04-08T10:13:00;99242.09;;;11.85;58.91
9969;BME280;5025;48.890;9.278;2023-04-08T10:15:36;99243.72;;;11.86;58.73
9969;BME280;5025;48.890;9.278;2023-04-08T10:23:18;99246.41;;;11.86;57.97
9969;BME280;5025;48.890;9.278;2023-04-08T10:25:46;99246.66;;;11.84;57.86
9969;BME280;5025;48.890;9.278;2023-04-08T10:33:09;99248.16;;;11.62;55.69
9969;BME280;5025;48.890;9.278;2023-04-08T10:35:35;99244.81;;;11.60;55.51
9969;BME280;5025;48.890;9.278;2023-04-08T10:38:01;99245.69;;;11.60;55.43
9969;BME280;5025;48.890;9.278;2023-04-08T10:40:27;99244.81;;;11.60;55.46
9969;BME280;5025;48.890;9.278;2023-04-08T10:42:56;99247.16;;;11.56;55.29
9969;BME280;5025;48.890;9.278;2023-04-08T10:45:22;99249.88;;;11.56;55.17
9969;BME280;5025;48.890;9.278;2023-04-08T10:47:47;99245.50;;;11.55;55.20
9969;BME280;5025;48.890;9.278;2023-04-08T10:50:17;99247.63;;;11.53;54.95
9969;BME280;5025;48.890;9.278;2023-04-08T10:52:46;99255.13;;;11.51;54.97
9969;BME280;5025;48.890;9.278;2023-04-08T10:55:12;99256.16;;;11.50;54.81
9969;BME280;5025;48.890;9.278;2023-04-08T10:57:37;99257.00;;;11.51;54.64
9969;BME280;5025;48.890;9.278;2023-04-08T11:00:09;99262.63;;;11.49;54.80
9969;BME280;5025;48.890;9.278;2023-04-08T11:02:37;99260.34;;;11.46;54.54
9969;BME280;5025;48.890;9.278;2023-04-08T11:05:02;99253.91;;;11.47;54.70
9969;BME280;5025;48.890;9.278;2023-04-08T11:07:28;99255.56;;;11.48;54.28
9969;BME280;5025;48.890;9.278;2023-04-08T11:09:53;99253.69;;;11.48;54.18
9969;BME280;5025;48.890;9.278;2023-04-08T11:12:20;99257.22;;;11.49;54.05
9969;BME280;5025;48.890;9.278;2023-04-08T11:14:45;99258.88;;;11.50;54.17
9969;BME280;5025;48.890;9.278;2023-04-08T11:17:14;99252.88;;;11.48;53.92
9969;BME280;5025;48.890;9.278;2023-04-08T11:19:40;99248.50;;;11.47;53.94
9969;BME280;5025;48.890;9.278;2023-04-08T11:22:06;99246.84;;;11.46;53.51
9969;BME280;5025;48.890;9.278;2023-04-08T11:24:34;99248.72;;;11.45;53.54
9969;BME280;5025;48.890;9.278;2023-04-08T11:27:01;99253.31;;;11.45;53.72
9969;BME280;5025;48.890;9.278;2023-04-08T11:29:27;99250.84;;;11.43;53.42
9969;BME280;5025;48.890;9.278;2023-04-08T11:31:54;99244.59;;;11.43;53.35
9969;BME280;5025;48.890;9.278;2023-04-08T11:34:21;99246.25;;;11.44;53.40
9969;BME280;5025;48.890;9.278;2023-04-08T11:36:48;99250.84;;;11.43;53.06
9969;BME280;5025;48.890;9.278;2023-04-08T11:39:14;99246.69;;;11.41;53.15
9969;BME280;5025;48.890;9.278;2023-04-08T11:41:40;99248.34;;;11.42;53.08
9969;BME280;5025;48.890;9.278;2023-04-08T11:44:05;99246.69;;;11.41;53.06
9969;BME280;5025;48.890;9.278;2023-04-08T11:46:31;99250.44;;;11.40;52.58
9969;BME280;5025;48.890;9.278;2023-04-08T11:49:01;99246.31;;;11.37;52.73
9969;BME280;5025;48.890;9.278;2023-04-08T11:51:27;99250.50;;;11.33;52.65
9969;BME280;5025;48.890;9.278;2023-04-08T11:53:52;99244.72;;;11.29;52.70
9969;BME280;5025;48.890;9.278;2023-04-08T11:56:19;99243.06;;;11.28;52.79
9969;BME280;5025;48.890;9.278;2023-04-08T11:58:45;99247.47;;;11.23;52.61
9969;BME280;5025;48.890;9.278;2023-04-08T12:01:11;99239.13;;;11.24;52.59
9969;BME280;5025;48.890;9.278;2023-04-08T12:03:37;99243.50;;;11.25;52.81
9969;BME280;5025;48.890;9.278;2023-04-08T12:06:02;99248.91;;;11.25;52.56
9969;BME280;5025;48.890;9.278;2023-04-08T12:08:29;99248.47;;;11.28;52.64
9969;BME280;5025;48.890;9.278;2023-04-08T12:10:54;99250.13;;;11.29;52.70
9969;BME280;5025;48.890;9.278;2023-04-08T12:13:21;99253.44;;;11.32;52.84
9969;BME280;5025;48.890;9.278;2023-04-08T12:15:46;99244.72;;;11.29;52.74
9969;BME280;5025;48.890;9.278;2023-04-08T12:18:12;99248.84;;;11.32;52.82
9969;BME280;5025;48.890;9.278;2023-04-08T12:20:37;99254.25;;;11.32;52.82
9969;BME280;5025;48.890;9.278;2023-04-08T12:23:02;99256.72;;;11.34;52.92
9969;BME280;5025;48.890;9.278;2023-04-08T12:25:27;99254.44;;;11.37;52.76
9969;BME280;5025;48.890;9.278;2023-04-08T12:27:53;99261.69;;;11.37;52.91
9969;BME280;5025;48.890;9.278;2023-04-08T12:30:18;99253.38;;;11.38;53.00
9969;BME280;5025;48.890;9.278;2023-04-08T12:32:44;99248.56;;;11.40;53.04
9969;BME280;5025;48.890;9.278;2023-04-08T12:35:10;99255.41;;;11.43;53.33
9969;BME280;5025;48.890;9.278;2023-04-08T12:37:35;99252.47;;;11.44;53.22
9969;BME280;5025;48.890;9.278;2023-04-08T12:40:01;99255.34;;;11.50;53.18
9969;BME280;5025;48.890;9.278;2023-04-08T12:42:26;99256.72;;;11.59;53.23
9969;BME280;5025;48.890;9.278;2023-04-08T12:44:52;99255.59;;;11.66;53.18
9969;BME280;5025;48.890;9.278;2023-04-08T12:47:18;99254.53;;;11.68;53.01
9969;BME280;5025;48.890;9.278;2023-04-08T12:49:43;99258.59;;;11.77;53.13
9969;BME280;5025;48.890;9.278;2023-04-08T12:52:09;99259.72;;;11.88;52.72
9969;BME280;5025;48.890;9.278;2023-04-08T12:54:34;99253.44;;;11.94;52.74
9969;BME280;5025;48.890;9.278;2023-04-08T12:56:59;99255.91;;;11.95;52.68
9969;BME280;5025;48.890;9.278;2023-04-08T12:59:25;99247.81;;;11.95;52.70
9969;BME280;5025;48.890;9.278;2023-04-08T13:01:51;99253.66;;;11.92;52.52
9969;BME280;5025;48.890;9.278;2023-04-08T13:04:16;99248.84;;;11.94;52.45
9969;BME280;5025;48.890;9.278;2023-04-08T13:06:41;99248.63;;;11.96;52.56
9969;BME280;5025;48.890;9.278;2023-04-08T13:09:07;99246.53;;;11.98;52.43
9969;BME280;5025;48.890;9.278;2023-04-08T13:11:32;99246.13;;;11.94;52.30
9969;BME280;5025;48.890;9.278;2023-04-08T13:13:58;99254.25;;;11.94;52.46
9969;BME280;5025;48.890;9.278;2023-04-08T13:16:23;99245.69;;;11.97;52.52
9969;BME280;5025;48.890;9.278;2023-04-08T13:18:49;99249.25;;;11.91;52.66
9969;BME280;5025;48.890;9.278;2023-04-08T13:21:14;99250.97;;;11.92;52.59
9969;BME280;5025;48.890;9.278;2023-04-08T13:23:39;99243.66;;;11.93;52.63
9969;BME280;5025;48.890;9.278;2023-04-08T13:26:04;99247.41;;;11.92;52.49
9969;BME280;5025;48.890;9.278;2023-04-08T13:28:30;99249.91;;;11.93;52.61
9969;BME280;5025;48.890;9.278;2023-04-08T13:30:56;99246.13;;;11.94;52.50
9969;BME280;5025;48.890;9.278;2023-04-08T13:33:21;99239.69;;;11.95;52.65
9969;BME280;5025;48.890;9.278;2023-04-08T13:35:47;99240.28;;;11.97;52.57
9969;BME280;5025;48.890;9.278;2023-04-08T13:38:12;99240.28;;;11.97;52.51